sensor_id;sensor_type;location;lat;lon;timestamp;P1;durP1;ratioP1;P2;durP2;ratioP2
10880;SDS011;5493;48.884;8.338;2023-12-07T08:58:02;6.37;;;4.37;;
10880;SDS011;5493;48.884;8.338;2023-12-07T09:00:30;7.30;;;5.03;;
10880;SDS011;5493;48.884;8.338;2023-12-07T09:02:56;9.03;;;5.50;;
10880;SDS011;5493;48.884;8.338;2023-12-07T09:05:25;9.20;;;5.10;;
10880;SDS011;5493;48.884;8.338;2023-12-07T09:07:52;10.10;;;6.47;;
10880;SDS011;5493;48.884;8.338;2023-12-07T09:10:19;11.80;;;7.03;;
10880;SDS011;5493;48.884;8.338;2023-12-07T09:12:46;10.47;;;6.80;;
10880;SDS011;5493;48.884;8.338;2023-12-07T09:15:13;13.90;;;7.53;;
10880;SDS011;5493;48.884;8.338;2023-12-07T09:17:40;16.60;;;8.50;;
10880;SDS011;5493;48.884;8.338;2023-12-07T09:20:07;14.80;;;8.13;;
10880;SDS011;5493;48.884;8.338;2023-12-07T09:22:37;13.97;;;9.23;;
10880;SDS011;5493;48.884;8.338;2023-12-07T09:25:04;16.20;;;9.27;;
10880;SDS011;5493;48.884;8.338;2023-12-07T09:27:32;17.03;;;10.03;;
10880;SDS011;5493;48.884;8.338;2023-12-07T09:30:00;26.07;;;13.23;;
10880;SDS011;5493;48.884;8.338;2023-12-07T09:32:27;16.33;;;11.20;;
10880;SDS011;5493;48.884;8.338;2023-12-07T09:34:54;12.23;;;7.57;;
10880;SDS011;5493;48.884;8.338;2023-12-07T09:37:20;12.33;;;7.30;;
10880;SDS011;5493;48.884;8.338;2023-12-07T09:39:47;10.13;;;6.77;;
10880;SDS011;5493;48.884;8.338;2023-12-07T09:42:13;10.17;;;6.67;;
10880;SDS011;5493;48.884;8.338;2023-12-07T09:44:40;9.60;;;5.47;;
10880;SDS011;5493;48.884;8.338;2023-12-07T09:47:06;8.73;;;5.83;;
10880;SDS011;5493;48.884;8.338;2023-12-07T09:49:34;9.13;;;5.47;;
10880;SDS011;5493;48.884;8.338;2023-12-07T09:52:00;7.80;;;5.30;;
10880;SDS011;5493;48.884;8.338;2023-12-07T09:54:30;8.70;;;4.70;;
10880;SDS011;5493;48.884;8.338;2023-12-07T09:56:56;9.80;;;5.10;;
10880;SDS011;5493;48.884;8.338;2023-12-07T09:59:23;6.83;;;4.97;;
10880;SDS011;5493;48.884;8.338;2023-12-07T10:01:49;8.33;;;5.53;;
10880;SDS011;5493;48.884;8.338;2023-12-07T10:04:16;10.17;;;5.60;;
10880;SDS011;5493;48.884;8.338;2023-12-07T10:06:45;7.87;;;4.77;;
10880;SDS011;5493;48.884;8.338;2023-12-07T10:09:14;9.10;;;5.30;;
10880;SDS011;5493;48.884;8.338;2023-12-07T10:11:41;7.20;;;5.17;;
10880;SDS011;5493;48.884;8.338;2023-12-07T10:14:08;9.97;;;5.20;;
10880;SDS011;5493;48.884;8.338;2023-12-07T10:16:35;9.67;;;4.97;;
10880;SDS011;5493;48.884;8.338;2023-12-07T10:19:12;7.23;;;5.13;;
10880;SDS011;5493;48.884;8.338;2023-12-07T10:21:39;8.47;;;4.57;;
10880;SDS011;5493;48.884;8.338;2023-12-07T10:24:07;8.00;;;5.23;;
10880;SDS011;5493;48.884;8.338;2023-12-07T10:26:35;7.30;;;5.27;;
10880;SDS011;5493;48.884;8.338;2023-12-07T10:29:01;7.63;;;4.80;;
10880;SDS011;5493;48.884;8.338;2023-12-07T10:31:28;8.40;;;5.07;;
10880;SDS011;5493;48.884;8.338;2023-12-07T10:33:56;11.13;;;5.30;;
10880;SDS011;5493;48.884;8.338;2023-12-07T10:36:23;7.97;;;4.80;;
10880;SDS011;5493;48.884;8.338;2023-12-07T10:38:49;7.57;;;4.50;;
10880;SDS011;5493;48.884;8.338;2023-12-07T10:41:18;5.97;;;4.57;;
10880;SDS011;5493;48.884;8.338;2023-12-07T10:43:48;7.70;;;4.63;;
10880;SDS011;5493;48.884;8.338;2023-12-07T10:46:17;7.17;;;4.97;;
10880;SDS011;5493;48.884;8.338;2023-12-07T10:48:47;8.67;;;5.20;;
10880;SDS011;5493;48.884;8.338;2023-12-07T10:51:15;8.17;;;5.03;;
10880;SDS011;5493;48.884;8.338;2023-12-07T10:53:46;7.73;;;5.13;;
10880;SDS011;5493;48.884;8.338;2023-12-07T10:56:15;7.80;;;5.00;;
10880;SDS011;5493;48.884;8.338;2023-12-07T10:58:51;8.37;;;5.60;;
10880;SDS011;5493;48.884;8.338;2023-12-07T11:01:19;8.43;;;5.80;;
10880;SDS011;5493;48.884;8.338;2023-12-07T11:03:47;7.83;;;5.03;;
10880;SDS011;5493;48.884;8.338;2023-12-07T11:06:17;8.97;;;5.37;;
10880;SDS011;5493;48.884;8.338;2023-12-07T11:08:46;15.70;;;8.60;;
10880;SDS011;5493;48.884;8.338;2023-12-07T11:11:17;13.00;;;7.10;;
10880;SDS011;5493;48.884;8.338;2023-12-07T11:13:52;42.93;;;15.43;;
10880;SDS011;5493;48.884;8.338;2023-12-07T11:16:28;16.13;;;8.40;;
10880;SDS011;5493;48.884;8.338;2023-12-07T11:18:55;25.13;;;9.43;;
10880;SDS011;5493;48.884;8.338;2023-12-07T11:21:22;27.60;;;10.43;;
10880;SDS011;5493;48.884;8.338;2023-12-07T11:23:48;12.20;;;6.93;;
10880;SDS011;5493;48.884;8.338;2023-12-07T11:26:18;14.43;;;7.23;;
10880;SDS011;5493;48.884;8.338;2023-12-07T11:28:46;7.23;;;5.07;;
10880;SDS011;5493;48.884;8.338;2023-12-07T11:31:13;9.37;;;5.87;;
10880;SDS011;5493;48.884;8.338;2023-12-07T11:33:41;9.53;;;5.40;;
10880;SDS011;5493;48.884;8.338;2023-12-07T11:36:09;8.20;;;5.40;;
10880;SDS011;5493;48.884;8.338;2023-12-07T11:38:37;8.33;;;5.73;;
10880;SDS011;5493;48.884;8.338;2023-12-07T11:41:05;12.07;;;7.07;;
10880;SDS011;5493;48.884;8.338;2023-12-07T11:43:36;9.97;;;6.13;;
10880;SDS011;5493;48.884;8.338;2023-12-07T11:46:10;7.73;;;5.37;;
10880;SDS011;5493;48.884;8.338;2023-12-07T11:48:38;8.03;;;5.70;;
10880;SDS011;5493;48.884;8.338;2023-12-07T11:51:05;12.50;;;5.60;;
10880;SDS011;5493;48.884;8.338;2023-12-07T11:53:33;7.53;;;5.23;;
10880;SDS011;5493;48.884;8.338;2023-12-07T11:56:01;11.70;;;5.97;;
10880;SDS011;5493;48.884;8.338;2023-12-07T11:58:29;10.27;;;6.90;;
10880;SDS011;5493;48.884;8.338;2023-12-07T12:00:57;10.27;;;6.80;;
10880;SDS011;5493;48.884;8.338;2023-12-07T12:03:26;11.13;;;7.20;;
10880;SDS011;5493;48.884;8.338;2023-12-07T12:05:53;10.23;;;6.97;;
10880;SDS011;5493;48.884;8.338;2023-12-07T12:08:20;6.77;;;5.17;;
10880;SDS011;5493;48.884;8.338;2023-12-07T12:10:48;10.00;;;6.20;;
10880;SDS011;5493;48.884;8.338;2023-12-07T12:13:17;9.20;;;6.30;;
10880;SDS011;5493;48.884;8.338;2023-12-07T12:15:44;9.17;;;5.97;;
10880;SDS011;5493;48.884;8.338;2023-12-07T12:18:11;8.93;;;6.33;;
10880;SDS011;5493;48.884;8.338;2023-12-07T12:20:40;12.00;;;7.53;;
10880;SDS011;5493;48.884;8.338;2023-12-07T12:23:07;9.63;;;6.60;;
10880;SDS011;5493;48.884;8.338;2023-12-07T12:25:34;9.73;;;6.87;;
10880;SDS011;5493;48.884;8.338;2023-12-07T12:28:01;9.17;;;5.80;;
10880;SDS011;5493;48.884;8.338;2023-12-07T12:30:29;6.90;;;5.37;;
10880;SDS011;5493;48.884;8.338;2023-12-07T12:32:56;7.37;;;5.40;;
10880;SDS011;5493;48.884;8.338;2023-12-07T12:35:25;8.93;;;5.70;;
10880;SDS011;5493;48.884;8.338;2023-12-07T12:37:52;8.73;;;6.27;;
10880;SDS011;5493;48.884;8.338;2023-12-07T12:40:20;11.57;;;8.40;;
10880;SDS011;5493;48.884;8.338;2023-12-07T12:42:49;9.00;;;6.83;;
10880;SDS011;5493;48.884;8.338;2023-12-07T12:45:17;10.83;;;6.57;;
10880;SDS011;5493;48.884;8.338;2023-12-07T12:47:44;7.90;;;5.77;;
10880;SDS011;5493;48.884;8.338;2023-12-07T12:50:12;17.43;;;10.30;;
10880;SDS011;5493;48.884;8.338;2023-12-07T12:53:00;7.87;;;5.60;;
10880;SDS011;5493;48.884;8.338;2023-12-07T12:55:30;13.50;;;7.80;;
10880;SDS011;5493;48.884;8.338;2023-12-07T12:57:57;10.23;;;7.07;;
10880;SDS011;5493;48.884;8.338;2023-12-07T13:00:24;8.50;;;6.20;;
10880;SDS011;5493;48.884;8.338;2023-12-07T13:02:51;10.13;;;7.33;;
10880;SDS011;5493;48.884;8.338;2023-12-07T13:05:18;9.60;;;7.23;;
10880;SDS011;5493;48.884;8.338;2023-12-07T13:07:44;8.80;;;7.37;;
10880;SDS011;5493;48.884;8.338;2023-12-07T13:10:14;12.23;;;8.50;;
10880;SDS011;5493;48.884;8.338;2023-12-07T13:12:41;13.47;;;8.73;;
10880;SDS011;5493;48.884;8.338;2023-12-07T13:15:08;11.73;;;8.40;;
10880;SDS011;5493;48.884;8.338;2023-12-07T13:17:35;13.17;;;8.33;;
10880;SDS011;5493;48.884;8.338;2023-12-07T13:20:03;11.10;;;8.27;;
10880;SDS011;5493;48.884;8.338;2023-12-07T13:22:31;10.93;;;8.40;;
10880;SDS011;5493;48.884;8.338;2023-12-07T13:24:57;11.43;;;8.17;;
10880;SDS011;5493;48.884;8.338;2023-12-07T13:27:25;13.57;;;8.40;;
10880;SDS011;5493;48.884;8.338;2023-12-07T13:29:53;12.97;;;8.67;;
10880;SDS011;5493;48.884;8.338;2023-12-07T13:32:20;11.97;;;7.63;;
10880;SDS011;5493;48.884;8.338;2023-12-07T13:34:46;11.57;;;7.80;;
10880;SDS011;5493;48.884;8.338;2023-12-07T13:37:13;14.27;;;9.10;;
10880;SDS011;5493;48.884;8.338;2023-12-07T13:39:39;11.93;;;8.53;;
10880;SDS011;5493;48.884;8.338;2023-12-07T13:42:08;12.70;;;8.37;;
10880;SDS011;5493;48.884;8.338;2023-12-07T13:44:36;11.27;;;8.57;;
10880;SDS011;5493;48.884;8.338;2023-12-07T13:47:02;13.13;;;8.80;;
10880;SDS011;5493;48.884;8.338;2023-12-07T13:49:29;12.33;;;8.63;;
10880;SDS011;5493;48.884;8.338;2023-12-07T13:51:55;12.80;;;9.00;;
10880;SDS011;5493;48.884;8.338;2023-12-07T13:54:22;12.17;;;8.47;;
10880;SDS011;5493;48.884;8.338;2023-12-07T13:56:48;12.83;;;8.60;;
10880;SDS011;5493;48.884;8.338;2023-12-07T13:59:15;14.57;;;8.60;;
10880;SDS011;5493;48.884;8.338;2023-12-07T14:01:43;14.77;;;8.50;;
10880;SDS011;5493;48.884;8.338;2023-12-07T14:04:09;19.03;;;8.53;;
10880;SDS011;5493;48.884;8.338;2023-12-07T14:06:36;15.30;;;8.37;;
10880;SDS011;5493;48.884;8.338;2023-12-07T14:09:02;17.13;;;10.03;;
10880;SDS011;5493;48.884;8.338;2023-12-07T14:11:29;12.90;;;8.33;;
10880;SDS011;5493;48.884;8.338;2023-12-07T14:13:56;15.50;;;8.97;;
10880;SDS011;5493;48.884;8.338;2023-12-07T14:16:22;14.73;;;9.07;;
10880;SDS011;5493;48.884;8.338;2023-12-07T14:18:50;13.40;;;8.50;;
10880;SDS011;5493;48.884;8.338;2023-12-07T14:21:20;14.97;;;8.33;;
10880;SDS011;5493;48.884;8.338;2023-12-07T14:23:46;16.00;;;8.77;;
10880;SDS011;5493;48.884;8.338;2023-12-07T14:26:13;17.27;;;9.77;;
10880;SDS011;5493;48.884;8.338;2023-12-07T14:28:40;14.67;;;8.93;;
10880;SDS011;5493;48.884;8.338;2023-12-07T14:31:07;15.83;;;9.27;;
10880;SDS011;5493;48.884;8.338;2023-12-07T14:33:39;16.90;;;10.07;;
10880;SDS011;5493;48.884;8.338;2023-12-07T14:36:08;18.83;;;10.33;;
10880;SDS011;5493;48.884;8.338;2023-12-07T14:38:35;16.40;;;10.03;;
10880;SDS011;5493;48.884;8.338;2023-12-07T14:41:02;17.53;;;9.47;;
10880;SDS011;5493;48.884;8.338;2023-12-07T14:43:29;17.30;;;9.97;;
10880;SDS011;5493;48.884;8.338;2023-12-07T14:45:55;17.73;;;10.07;;
10880;SDS011;5493;48.884;8.338;2023-12-07T14:48:22;19.87;;;11.23;;
10880;SDS011;5493;48.884;8.338;2023-12-07T14:50:49;19.83;;;12.00;;
10880;SDS011;5493;48.884;8.338;2023-12-07T14:53:18;24.37;;;11.67;;
10880;SDS011;5493;48.884;8.338;2023-12-07T14:55:45;23.60;;;10.63;;
10880;SDS011;5493;48.884;8.338;2023-12-07T14:58:12;20.07;;;10.43;;
10880;SDS011;5493;48.884;8.338;2023-12-07T15:00:38;19.50;;;10.47;;
10880;SDS011;5493;48.884;8.338;2023-12-07T15:03:05;18.77;;;10.57;;
10880;SDS011;5493;48.884;8.338;2023-12-07T15:05:32;17.87;;;10.07;;
10880;SDS011;5493;48.884;8.338;2023-12-07T15:07:58;20.83;;;11.03;;
10880;SDS011;5493;48.884;8.338;2023-12-07T15:10:26;25.70;;;14.23;;
10880;SDS011;5493;48.884;8.338;2023-12-07T15:12:52;23.93;;;12.63;;
10880;SDS011;5493;48.884;8.338;2023-12-07T15:15:19;28.93;;;15.70;;
10880;SDS011;5493;48.884;8.338;2023-12-07T15:17:46;21.03;;;13.10;;
10880;SDS011;5493;48.884;8.338;2023-12-07T15:20:12;20.77;;;11.30;;
10880;SDS011;5493;48.884;8.338;2023-12-07T15:22:39;19.23;;;10.37;;
10880;SDS011;5493;48.884;8.338;2023-12-07T15:25:07;19.97;;;9.83;;
10880;SDS011;5493;48.884;8.338;2023-12-07T15:27:35;18.53;;;10.30;;
10880;SDS011;5493;48.884;8.338;2023-12-07T15:30:01;19.70;;;9.90;;
10880;SDS011;5493;48.884;8.338;2023-12-07T15:32:32;19.83;;;9.40;;
10880;SDS011;5493;48.884;8.338;2023-12-07T15:34:58;20.27;;;9.97;;
10880;SDS011;5493;48.884;8.338;2023-12-07T15:37:25;16.67;;;9.90;;
10880;SDS011;5493;48.884;8.338;2023-12-07T15:39:51;16.67;;;9.80;;
10880;SDS011;5493;48.884;8.338;2023-12-07T15:42:18;13.70;;;8.13;;
10880;SDS011;5493;48.884;8.338;2023-12-07T15:44:45;17.87;;;9.57;;
10880;SDS011;5493;48.884;8.338;2023-12-07T15:47:12;18.33;;;9.53;;
10880;SDS011;5493;48.884;8.338;2023-12-07T15:49:38;17.83;;;9.57;;
10880;SDS011;5493;48.884;8.338;2023-12-07T15:52:06;17.77;;;9.37;;
10880;SDS011;5493;48.884;8.338;2023-12-07T15:54:32;16.03;;;9.67;;
10880;SDS011;5493;48.884;8.338;2023-12-07T15:56:59;17.47;;;10.57;;
10880;SDS011;5493;48.884;8.338;2023-12-07T15:59:25;18.23;;;9.80;;
10880;SDS011;5493;48.884;8.338;2023-12-07T16:01:53;18.03;;;9.93;;
10880;SDS011;5493;48.884;8.338;2023-12-07T16:04:19;18.77;;;10.70;;
10880;SDS011;5493;48.884;8.338;2023-12-07T16:06:46;19.30;;;10.80;;
10880;SDS011;5493;48.884;8.338;2023-12-07T16:09:12;22.07;;;10.73;;
10880;SDS011;5493;48.884;8.338;2023-12-07T16:11:39;16.90;;;10.23;;
10880;SDS011;5493;48.884;8.338;2023-12-07T16:14:06;15.73;;;9.27;;
10880;SDS011;5493;48.884;8.338;2023-12-07T16:16:32;17.47;;;9.97;;
10880;SDS011;5493;48.884;8.338;2023-12-07T16:19:00;16.97;;;10.03;;
10880;SDS011;5493;48.884;8.338;2023-12-07T16:21:27;16.13;;;9.70;;
10880;SDS011;5493;48.884;8.338;2023-12-07T16:23:55;18.20;;;10.40;;
10880;SDS011;5493;48.884;8.338;2023-12-07T16:26:21;15.47;;;8.60;;
10880;SDS011;5493;48.884;8.338;2023-12-07T16:28:48;16.33;;;9.37;;
10880;SDS011;5493;48.884;8.338;2023-12-07T16:31:15;17.27;;;9.90;;
10880;SDS011;5493;48.884;8.338;2023-12-07T16:33:41;18.27;;;10.30;;
10880;SDS011;5493;48.884;8.338;2023-12-07T16:36:13;21.20;;;11.13;;
10880;SDS011;5493;48.884;8.338;2023-12-07T16:38:41;22.43;;;10.80;;
10880;SDS011;5493;48.884;8.338;2023-12-07T16:41:07;19.13;;;10.30;;
10880;SDS011;5493;48.884;8.338;2023-12-07T16:43:34;21.83;;;10.23;;
10880;SDS011;5493;48.884;8.338;2023-12-07T16:46:00;23.60;;;11.57;;
10880;SDS011;5493;48.884;8.338;2023-12-07T16:48:28;21.20;;;11.17;;
10880;SDS011;5493;48.884;8.338;2023-12-07T16:50:55;22.90;;;10.67;;
10880;SDS011;5493;48.884;8.338;2023-12-07T16:53:23;26.80;;;12.27;;
10880;SDS011;5493;48.884;8.338;2023-12-07T16:55:49;22.10;;;11.73;;
10880;SDS011;5493;48.884;8.338;2023-12-07T16:58:17;29.30;;;13.00;;
10880;SDS011;5493;48.884;8.338;2023-12-07T17:00:44;25.83;;;14.60;;
10880;SDS011;5493;48.884;8.338;2023-12-07T17:03:11;26.37;;;12.13;;
10880;SDS011;5493;48.884;8.338;2023-12-07T17:05:37;23.87;;;12.67;;
10880;SDS011;5493;48.884;8.338;2023-12-07T17:08:06;26.83;;;12.17;;
10880;SDS011;5493;48.884;8.338;2023-12-07T17:10:33;24.33;;;12.80;;
10880;SDS011;5493;48.884;8.338;2023-12-07T17:13:00;21.33;;;11.40;;
10880;SDS011;5493;48.884;8.338;2023-12-07T17:15:27;22.00;;;11.27;;
10880;SDS011;5493;48.884;8.338;2023-12-07T17:17:53;31.27;;;13.50;;
10880;SDS011;5493;48.884;8.338;2023-12-07T17:20:20;27.57;;;13.43;;
10880;SDS011;5493;48.884;8.338;2023-12-07T17:22:46;25.57;;;12.57;;
10880;SDS011;5493;48.884;8.338;2023-12-07T17:25:12;30.10;;;14.07;;
10880;SDS011;5493;48.884;8.338;2023-12-07T17:27:43;30.47;;;13.73;;
10880;SDS011;5493;48.884;8.338;2023-12-07T17:30:10;27.70;;;13.10;;
10880;SDS011;5493;48.884;8.338;2023-12-07T17:32:37;25.83;;;14.00;;
10880;SDS011;5493;48.884;8.338;2023-12-07T17:35:04;30.30;;;13.13;;
10880;SDS011;5493;48.884;8.338;2023-12-07T17:37:30;30.53;;;14.10;;
10880;SDS011;5493;48.884;8.338;2023-12-07T17:39:57;26.37;;;13.40;;
10880;SDS011;5493;48.884;8.338;2023-12-07T17:42:23;36.53;;;17.23;;
10880;SDS011;5493;48.884;8.338;2023-12-07T17:44:51;32.93;;;16.07;;
10880;SDS011;5493;48.884;8.338;2023-12-07T17:47:17;27.87;;;13.63;;
10880;SDS011;5493;48.884;8.338;2023-12-07T17:49:47;40.10;;;15.90;;
10880;SDS011;5493;48.884;8.338;2023-12-07T17:52:14;26.17;;;13.77;;
10880;SDS011;5493;48.884;8.338;2023-12-07T17:54:41;29.37;;;15.13;;
10880;SDS011;5493;48.884;8.338;2023-12-07T17:57:07;30.97;;;13.47;;
10880;SDS011;5493;48.884;8.338;2023-12-07T17:59:33;28.23;;;11.43;;
10880;SDS011;5493;48.884;8.338;2023-12-07T18:02:01;24.93;;;12.67;;
10880;SDS011;5493;48.884;8.338;2023-12-07T18:04:27;34.60;;;12.90;;
10880;SDS011;5493;48.884;8.338;2023-12-07T18:06:54;30.40;;;13.97;;
10880;SDS011;5493;48.884;8.338;2023-12-07T18:09:20;35.77;;;14.20;;
10880;SDS011;5493;48.884;8.338;2023-12-07T18:11:47;27.37;;;13.67;;
10880;SDS011;5493;48.884;8.338;2023-12-07T18:14:13;32.17;;;12.63;;
10880;SDS011;5493;48.884;8.338;2023-12-07T18:16:40;22.77;;;11.13;;
10880;SDS011;5493;48.884;8.338;2023-12-07T18:19:07;20.83;;;11.10;;
10880;SDS011;5493;48.884;8.338;2023-12-07T18:21:34;17.10;;;8.67;;
10880;SDS011;5493;48.884;8.338;2023-12-07T18:24:00;14.53;;;8.60;;
10880;SDS011;5493;48.884;8.338;2023-12-07T18:26:27;14.20;;;8.90;;
10880;SDS011;5493;48.884;8.338;2023-12-07T18:28:55;14.20;;;8.40;;
10880;SDS011;5493;48.884;8.338;2023-12-07T18:31:21;13.10;;;8.53;;
10880;SDS011;5493;48.884;8.338;2023-12-07T18:33:48;13.83;;;7.97;;
10880;SDS011;5493;48.884;8.338;2023-12-07T18:36:16;12.20;;;7.33;;
10880;SDS011;5493;48.884;8.338;2023-12-07T18:38:42;12.23;;;6.50;;
10880;SDS011;5493;48.884;8.338;2023-12-07T18:41:09;8.90;;;6.40;;
10880;SDS011;5493;48.884;8.338;2023-12-07T18:43:35;5.90;;;4.10;;
10880;SDS011;5493;48.884;8.338;2023-12-07T18:46:01;6.07;;;4.00;;
10880;SDS011;5493;48.884;8.338;2023-12-07T18:48:30;5.50;;;3.70;;
10880;SDS011;5493;48.884;8.338;2023-12-07T18:50:56;7.30;;;4.70;;
10880;SDS011;5493;48.884;8.338;2023-12-07T18:53:25;9.83;;;6.10;;
10880;SDS011;5493;48.884;8.338;2023-12-07T18:55:52;9.07;;;5.13;;
10880;SDS011;5493;48.884;8.338;2023-12-07T18:58:18;12.20;;;7.50;;
10880;SDS011;5493;48.884;8.338;2023-12-07T19:00:47;14.03;;;8.60;;
10880;SDS011;5493;48.884;8.338;2023-12-07T19:03:13;16.47;;;9.47;;
10880;SDS011;5493;48.884;8.338;2023-12-07T19:05:40;17.57;;;8.97;;
10880;SDS011;5493;48.884;8.338;2023-12-07T19:08:09;15.53;;;8.70;;
10880;SDS011;5493;48.884;8.338;2023-12-07T19:10:37;14.90;;;7.23;;
10880;SDS011;5493;48.884;8.338;2023-12-07T19:13:04;21.77;;;10.43;;
10880;SDS011;5493;48.884;8.338;2023-12-07T19:15:30;19.03;;;9.40;;
10880;SDS011;5493;48.884;8.338;2023-12-07T19:17:57;7.57;;;4.27;;
10880;SDS011;5493;48.884;8.338;2023-12-07T19:20:23;10.93;;;6.50;;
10880;SDS011;5493;48.884;8.338;2023-12-07T19:22:50;11.37;;;7.00;;
10880;SDS011;5493;48.884;8.338;2023-12-07T19:25:17;12.60;;;6.63;;
10880;SDS011;5493;48.884;8.338;2023-12-07T19:27:45;9.30;;;5.10;;
10880;SDS011;5493;48.884;8.338;2023-12-07T19:30:11;10.07;;;5.73;;
10880;SDS011;5493;48.884;8.338;2023-12-07T19:32:38;9.47;;;6.00;;
10880;SDS011;5493;48.884;8.338;2023-12-07T19:35:05;13.57;;;6.63;;
10880;SDS011;5493;48.884;8.338;2023-12-07T19:37:32;15.17;;;8.13;;
10880;SDS011;5493;48.884;8.338;2023-12-07T19:40:01;25.70;;;10.87;;
10880;SDS011;5493;48.884;8.338;2023-12-07T19:42:27;19.57;;;9.90;;
10880;SDS011;5493;48.884;8.338;2023-12-07T19:44:55;15.07;;;8.10;;
10880;SDS011;5493;48.884;8.338;2023-12-07T19:47:22;21.73;;;10.67;;
10880;SDS011;5493;48.884;8.338;2023-12-07T19:49:48;28.13;;;13.57;;
10880;SDS011;5493;48.884;8.338;2023-12-07T19:52:15;29.23;;;12.67;;
10880;SDS011;5493;48.884;8.338;2023-12-07T19:54:42;21.00;;;10.87;;
10880;SDS011;5493;48.884;8.338;2023-12-07T19:57:08;24.47;;;10.60;;
10880;SDS011;5493;48.884;8.338;2023-12-07T19:59:35;18.40;;;10.10;;
10880;SDS011;5493;48.884;8.338;2023-12-07T20:02:03;20.90;;;10.87;;
10880;SDS011;5493;48.884;8.338;2023-12-07T20:04:30;21.33;;;11.73;;
10880;SDS011;5493;48.884;8.338;2023-12-07T20:06:57;28.47;;;13.63;;
10880;SDS011;5493;48.884;8.338;2023-12-07T20:09:24;41.60;;;19.00;;
10880;SDS011;5493;48.884;8.338;2023-12-07T20:11:57;31.77;;;16.70;;
10880;SDS011;5493;48.884;8.338;2023-12-07T20:14:28;28.17;;;13.37;;
10880;SDS011;5493;48.884;8.338;2023-12-07T20:16:55;25.60;;;12.13;;
10880;SDS011;5493;48.884;8.338;2023-12-07T20:19:29;42.33;;;18.37;;
10880;SDS011;5493;48.884;8.338;2023-12-07T20:21:59;22.47;;;10.83;;
10880;SDS011;5493;48.884;8.338;2023-12-07T20:24:35;23.53;;;11.13;;
10880;SDS011;5493;48.884;8.338;2023-12-07T20:27:04;23.03;;;10.43;;
10880;SDS011;5493;48.884;8.338;2023-12-07T20:29:35;24.27;;;11.47;;
10880;SDS011;5493;48.884;8.338;2023-12-07T20:32:05;23.43;;;11.57;;
10880;SDS011;5493;48.884;8.338;2023-12-07T20:34:33;30.37;;;12.97;;
10880;SDS011;5493;48.884;8.338;2023-12-07T20:37:01;23.37;;;11.10;;
10880;SDS011;5493;48.884;8.338;2023-12-07T20:39:30;24.73;;;11.80;;
10880;SDS011;5493;48.884;8.338;2023-12-07T20:42:00;23.20;;;10.83;;
10880;SDS011;5493;48.884;8.338;2023-12-07T20:44:26;22.90;;;10.93;;
10880;SDS011;5493;48.884;8.338;2023-12-07T20:46:52;20.57;;;8.57;;
10880;SDS011;5493;48.884;8.338;2023-12-07T20:49:19;15.97;;;8.03;;
10880;SDS011;5493;48.884;8.338;2023-12-07T20:51:47;20.00;;;9.10;;
10880;SDS011;5493;48.884;8.338;2023-12-07T20:54:13;16.50;;;7.97;;
10880;SDS011;5493;48.884;8.338;2023-12-07T20:56:40;15.33;;;7.70;;
10880;SDS011;5493;48.884;8.338;2023-12-07T20:59:07;20.20;;;8.27;;
10880;SDS011;5493;48.884;8.338;2023-12-07T21:01:34;20.17;;;7.33;;
10880;SDS011;5493;48.884;8.338;2023-12-07T21:04:00;18.53;;;9.23;;
10880;SDS011;5493;48.884;8.338;2023-12-07T21:06:28;18.87;;;9.53;;
10880;SDS011;5493;48.884;8.338;2023-12-07T21:08:56;27.97;;;9.57;;
10880;SDS011;5493;48.884;8.338;2023-12-07T21:11:22;19.77;;;8.67;;
10880;SDS011;5493;48.884;8.338;2023-12-07T21:13:49;23.73;;;8.43;;
10880;SDS011;5493;48.884;8.338;2023-12-07T21:16:15;20.90;;;9.47;;
10880;SDS011;5493;48.884;8.338;2023-12-07T21:18:41;17.00;;;8.70;;
10880;SDS011;5493;48.884;8.338;2023-12-07T21:21:08;20.03;;;9.30;;
10880;SDS011;5493;48.884;8.338;2023-12-07T21:23:34;22.57;;;9.50;;
10880;SDS011;5493;48.884;8.338;2023-12-07T21:26:03;26.07;;;9.23;;
10880;SDS011;5493;48.884;8.338;2023-12-07T21:28:30;18.27;;;8.57;;
10880;SDS011;5493;48.884;8.338;2023-12-07T21:30:57;21.83;;;9.07;;
10880;SDS011;5493;48.884;8.338;2023-12-07T21:33:23;18.97;;;9.17;;
10880;SDS011;5493;48.884;8.338;2023-12-07T21:35:50;18.30;;;7.93;;
10880;SDS011;5493;48.884;8.338;2023-12-07T21:38:16;15.43;;;7.80;;
10880;SDS011;5493;48.884;8.338;2023-12-07T21:40:43;19.40;;;8.43;;
10880;SDS011;5493;48.884;8.338;2023-12-07T21:43:10;19.23;;;9.13;;
10880;SDS011;5493;48.884;8.338;2023-12-07T21:45:37;15.13;;;7.63;;
10880;SDS011;5493;48.884;8.338;2023-12-07T21:48:03;15.47;;;8.07;;
10880;SDS011;5493;48.884;8.338;2023-12-07T21:50:30;14.20;;;7.73;;
10880;SDS011;5493;48.884;8.338;2023-12-07T21:52:56;15.40;;;8.10;;
10880;SDS011;5493;48.884;8.338;2023-12-07T21:55:24;17.47;;;7.70;;
10880;SDS011;5493;48.884;8.338;2023-12-07T21:57:51;22.30;;;8.70;;
10880;SDS011;5493;48.884;8.338;2023-12-07T22:00:19;19.03;;;8.63;;
10880;SDS011;5493;48.884;8.338;2023-12-07T22:02:45;23.17;;;9.23;;
10880;SDS011;5493;48.884;8.338;2023-12-07T22:05:12;21.43;;;9.40;;
10880;SDS011;5493;48.884;8.338;2023-12-07T22:07:39;24.43;;;8.63;;
10880;SDS011;5493;48.884;8.338;2023-12-07T22:10:06;23.63;;;9.27;;
10880;SDS011;5493;48.884;8.338;2023-12-07T22:12:33;18.00;;;8.90;;
10880;SDS011;5493;48.884;8.338;2023-12-07T22:14:59;17.73;;;8.37;;
10880;SDS011;5493;48.884;8.338;2023-12-07T22:17:27;19.13;;;9.87;;
10880;SDS011;5493;48.884;8.338;2023-12-07T22:19:53;14.73;;;8.20;;
10880;SDS011;5493;48.884;8.338;2023-12-07T22:22:20;25.40;;;9.93;;
10880;SDS011;5493;48.884;8.338;2023-12-07T22:24:46;15.23;;;8.17;;
10880;SDS011;5493;48.884;8.338;2023-12-07T22:27:13;19.27;;;9.00;;
10880;SDS011;5493;48.884;8.338;2023-12-07T22:29:39;16.23;;;8.63;;
10880;SDS011;5493;48.884;8.338;2023-12-07T22:32:06;17.50;;;9.47;;
10880;SDS011;5493;48.884;8.338;2023-12-07T22:34:33;15.50;;;8.80;;
10880;SDS011;5493;48.884;8.338;2023-12-07T22:37:00;17.43;;;8.97;;
10880;SDS011;5493;48.884;8.338;2023-12-07T22:39:26;20.43;;;9.53;;
10880;SDS011;5493;48.884;8.338;2023-12-07T22:41:53;14.73;;;6.53;;
10880;SDS011;5493;48.884;8.338;2023-12-07T22:44:19;19.40;;;8.90;;
10880;SDS011;5493;48.884;8.338;2023-12-07T22:46:46;17.13;;;9.13;;
10880;SDS011;5493;48.884;8.338;2023-12-07T22:49:12;19.73;;;9.50;;
10880;SDS011;5493;48.884;8.338;2023-12-07T22:51:40;21.40;;;9.50;;
10880;SDS011;5493;48.884;8.338;2023-12-07T22:54:07;17.13;;;9.03;;
10880;SDS011;5493;48.884;8.338;2023-12-07T22:56:33;18.40;;;8.33;;
10880;SDS011;5493;48.884;8.338;2023-12-07T22:59:00;19.83;;;10.27;;
10880;SDS011;5493;48.884;8.338;2023-12-07T23:01:26;16.83;;;8.67;;
10880;SDS011;5493;48.884;8.338;2023-12-07T23:03:53;20.93;;;8.50;;
10880;SDS011;5493;48.884;8.338;2023-12-07T23:06:19;20.90;;;9.20;;
10880;SDS011;5493;48.884;8.338;2023-12-07T23:08:47;14.33;;;8.27;;
10880;SDS011;5493;48.884;8.338;2023-12-07T23:11:13;15.17;;;7.00;;
10880;SDS011;5493;48.884;8.338;2023-12-07T23:13:40;12.77;;;7.20;;
10880;SDS011;5493;48.884;8.338;2023-12-07T23:16:07;18.60;;;9.03;;
10880;SDS011;5493;48.884;8.338;2023-12-07T23:18:33;16.00;;;8.40;;
10880;SDS011;5493;48.884;8.338;2023-12-07T23:20:59;16.17;;;7.80;;
10880;SDS011;5493;48.884;8.338;2023-12-07T23:23:26;14.17;;;6.90;;
10880;SDS011;5493;48.884;8.338;2023-12-07T23:25:56;14.03;;;7.57;;
10880;SDS011;5493;48.884;8.338;2023-12-07T23:28:24;13.40;;;6.83;;
10880;SDS011;5493;48.884;8.338;2023-12-07T23:30:50;14.10;;;6.43;;
10880;SDS011;5493;48.884;8.338;2023-12-07T23:33:17;14.53;;;7.57;;
10880;SDS011;5493;48.884;8.338;2023-12-07T23:35:43;14.20;;;7.03;;
10880;SDS011;5493;48.884;8.338;2023-12-07T23:38:09;15.87;;;7.57;;
10880;SDS011;5493;48.884;8.338;2023-12-07T23:40:37;12.33;;;6.80;;
10880;SDS011;5493;48.884;8.338;2023-12-07T23:43:05;12.27;;;6.50;;